TKJ1245 LTFO-LTAN
Flight info
| Callsign | TKJ1245 |
|---|---|
| Flight time | 1h 27m |
| Altitude | 38000 |
| Route | ZUBRE UG67 TBN UW706 SIV UA285 SELVI/N0452F390 UA285 MUT/N0451F380 UA28 OBRUK |
| Aircraft | A20N/M-SDE2E3FGHIRWXY/LB1 |
Departure
| Time | 2026-05-01 09:41 |
|---|---|
| Airport | Rize–Artvin Airport (LTFO) |
Arrival
| Time | 2026-05-01 11:08 |
|---|---|
| Airport | Konya Airport (LTAN) |
| Time | Latitude | Longitude | Altitude | Speed | Heading |
|---|---|---|---|---|---|
| 2026-05-01 09:18 | 41.17564 | 40.84532 | 25 ft | 0 kts | 163° |
| 2026-05-01 09:31 | 41.17565 | 40.84531 | 25 ft | 2 kts | 163° |
| 2026-05-01 09:31 | 41.17581 | 40.84524 | 29 ft | 2 kts | 155° |
| 2026-05-01 09:31 | 41.17607 | 40.84498 | 26 ft | 2 kts | 123° |
| 2026-05-01 09:32 | 41.17614 | 40.84478 | 27 ft | 2 kts | 96° |
| 2026-05-01 09:32 | 41.17612 | 40.84448 | 27 ft | 0 kts | 73° |
| 2026-05-01 09:34 | 41.17650 | 40.84498 | 27 ft | 11 kts | 2° |
| 2026-05-01 09:35 | 41.17744 | 40.84444 | 28 ft | 21 kts | 345° |
| 2026-05-01 09:35 | 41.17840 | 40.84270 | 27 ft | 20 kts | 235° |
| 2026-05-01 09:35 | 41.17779 | 40.84030 | 27 ft | 34 kts | 250° |
| 2026-05-01 09:36 | 41.17671 | 40.83692 | 27 ft | 45 kts | 255° |
| 2026-05-01 09:36 | 41.17550 | 40.83351 | 25 ft | 15 kts | 232° |
| 2026-05-01 09:36 | 41.17511 | 40.83275 | 28 ft | 0 kts | 250° |
| 2026-05-01 09:37 | 41.17510 | 40.83251 | 29 ft | 8 kts | 284° |
| 2026-05-01 09:38 | 41.17578 | 40.83313 | 28 ft | 3 kts | 75° |
| 2026-05-01 09:38 | 41.17580 | 40.83320 | 28 ft | 0 kts | 72° |
| 2026-05-01 09:40 | 41.17616 | 40.83460 | 30 ft | 48 kts | 70° |
| 2026-05-01 09:40 | 41.18105 | 40.85364 | 123 ft | 150 kts | 70° |
| 2026-05-01 09:40 | 41.18430 | 40.86737 | 589 ft | 163 kts | 71° |
| 2026-05-01 09:41 | 41.18793 | 40.88297 | 890 ft | 188 kts | 71° |
| 2026-05-01 09:41 | 41.20287 | 40.91184 | 2197 ft | 192 kts | 31° |
| 2026-05-01 09:41 | 41.21549 | 40.91816 | 2789 ft | 200 kts | 5° |
| 2026-05-01 09:42 | 41.22918 | 40.91496 | 3358 ft | 208 kts | 322° |
| 2026-05-01 09:42 | 41.23767 | 40.89910 | 3831 ft | 228 kts | 281° |
| 2026-05-01 09:42 | 41.23147 | 40.85190 | 4484 ft | 295 kts | 253° |
| 2026-05-01 09:43 | 41.22173 | 40.79493 | 5630 ft | 334 kts | 265° |
| 2026-05-01 09:43 | 41.22153 | 40.76453 | 6979 ft | 322 kts | 269° |
| 2026-05-01 09:43 | 41.22195 | 40.73561 | 8544 ft | 304 kts | 268° |
| 2026-05-01 09:44 | 41.23004 | 40.68267 | 11159 ft | 297 kts | 285° |
| 2026-05-01 09:44 | 41.23735 | 40.65578 | 11552 ft | 321 kts | 287° |
| 2026-05-01 09:44 | 41.24541 | 40.62710 | 12032 ft | 338 kts | 285° |
| 2026-05-01 09:45 | 41.25086 | 40.59687 | 12898 ft | 336 kts | 272° |
| 2026-05-01 09:45 | 41.24537 | 40.53565 | 14585 ft | 336 kts | 250° |
| 2026-05-01 09:45 | 41.23752 | 40.50667 | 15354 ft | 339 kts | 246° |
| 2026-05-01 09:46 | 41.22819 | 40.47769 | 16131 ft | 343 kts | 244° |
| 2026-05-01 09:46 | 41.21831 | 40.44869 | 16906 ft | 347 kts | 244° |
| 2026-05-01 09:46 | 41.20823 | 40.41933 | 17658 ft | 351 kts | 244° |
| 2026-05-01 09:46 | 41.19807 | 40.38958 | 18388 ft | 355 kts | 244° |
| 2026-05-01 09:47 | 41.18786 | 40.35950 | 19063 ft | 358 kts | 244° |
| 2026-05-01 09:47 | 41.17760 | 40.32921 | 19744 ft | 361 kts | 244° |
| 2026-05-01 09:47 | 41.16723 | 40.29865 | 20417 ft | 364 kts | 244° |
| 2026-05-01 09:47 | 41.15680 | 40.26790 | 21078 ft | 367 kts | 244° |
| 2026-05-01 09:48 | 41.14625 | 40.23684 | 21732 ft | 370 kts | 244° |
| 2026-05-01 09:48 | 41.13562 | 40.20556 | 22392 ft | 374 kts | 244° |
| 2026-05-01 09:48 | 41.12486 | 40.17394 | 23020 ft | 377 kts | 244° |
| 2026-05-01 09:48 | 41.11403 | 40.14213 | 23628 ft | 381 kts | 244° |
| 2026-05-01 09:49 | 41.10307 | 40.10999 | 24151 ft | 384 kts | 244° |
| 2026-05-01 09:49 | 41.09204 | 40.07766 | 24688 ft | 386 kts | 244° |
| 2026-05-01 09:49 | 41.08091 | 40.04509 | 25197 ft | 390 kts | 244° |
| 2026-05-01 09:49 | 41.06966 | 40.01221 | 25702 ft | 392 kts | 244° |
| 2026-05-01 09:50 | 41.05847 | 39.97951 | 26192 ft | 395 kts | 244° |
| 2026-05-01 09:50 | 41.04705 | 39.94622 | 26678 ft | 398 kts | 244° |
| 2026-05-01 09:50 | 41.03556 | 39.91275 | 27140 ft | 401 kts | 244° |
| 2026-05-01 09:50 | 41.02396 | 39.87899 | 27617 ft | 403 kts | 244° |
| 2026-05-01 09:51 | 41.01229 | 39.84509 | 28060 ft | 406 kts | 244° |
| 2026-05-01 09:51 | 41.00054 | 39.81097 | 28492 ft | 408 kts | 244° |
| 2026-05-01 09:51 | 40.98804 | 39.77711 | 28908 ft | 411 kts | 242° |
| 2026-05-01 09:51 | 40.97475 | 39.74342 | 29322 ft | 413 kts | 242° |
| 2026-05-01 09:52 | 40.96148 | 39.70964 | 29713 ft | 415 kts | 242° |
| 2026-05-01 09:52 | 40.94811 | 39.67559 | 30096 ft | 418 kts | 242° |
| 2026-05-01 09:52 | 40.93466 | 39.64138 | 30479 ft | 419 kts | 242° |
| 2026-05-01 09:52 | 40.92119 | 39.60716 | 30865 ft | 420 kts | 242° |
| 2026-05-01 09:53 | 40.90783 | 39.57325 | 31248 ft | 422 kts | 242° |
| 2026-05-01 09:53 | 40.89428 | 39.53891 | 31707 ft | 421 kts | 242° |
| 2026-05-01 09:53 | 40.88073 | 39.50464 | 32148 ft | 420 kts | 242° |
| 2026-05-01 09:53 | 40.86711 | 39.47024 | 31961 ft | 422 kts | 242° |
| 2026-05-01 09:54 | 40.83981 | 39.40140 | 32297 ft | 424 kts | 242° |
| 2026-05-01 09:54 | 40.82615 | 39.36702 | 32839 ft | 420 kts | 242° |
| 2026-05-01 09:54 | 40.81266 | 39.33307 | 33491 ft | 414 kts | 242° |
| 2026-05-01 09:55 | 40.79932 | 39.29955 | 33938 ft | 412 kts | 241° |
| 2026-05-01 09:55 | 40.78599 | 39.26609 | 34326 ft | 411 kts | 241° |
| 2026-05-01 09:55 | 40.77269 | 39.23275 | 34635 ft | 410 kts | 241° |
| 2026-05-01 09:55 | 40.75956 | 39.19989 | 34969 ft | 409 kts | 241° |
| 2026-05-01 09:56 | 40.74625 | 39.16660 | 35267 ft | 409 kts | 241° |
| 2026-05-01 09:56 | 40.73295 | 39.13336 | 35566 ft | 409 kts | 241° |
| 2026-05-01 09:56 | 40.71962 | 39.10012 | 35882 ft | 409 kts | 241° |
| 2026-05-01 09:56 | 40.70632 | 39.06697 | 36190 ft | 408 kts | 242° |
| 2026-05-01 09:57 | 40.69305 | 39.03391 | 36464 ft | 408 kts | 241° |
| 2026-05-01 09:57 | 40.67974 | 39.00082 | 36761 ft | 408 kts | 242° |
| 2026-05-01 09:57 | 40.66656 | 38.96810 | 37022 ft | 409 kts | 242° |
| 2026-05-01 09:57 | 40.65321 | 38.93495 | 37306 ft | 408 kts | 242° |
| 2026-05-01 09:58 | 40.63988 | 38.90188 | 37577 ft | 408 kts | 242° |
| 2026-05-01 09:58 | 40.62654 | 38.86893 | 37852 ft | 408 kts | 241° |
| 2026-05-01 09:58 | 40.61313 | 38.83590 | 37969 ft | 409 kts | 241° |
| 2026-05-01 09:58 | 40.59974 | 38.80299 | 37964 ft | 406 kts | 241° |
| 2026-05-01 09:59 | 40.57318 | 38.73781 | 37964 ft | 406 kts | 241° |
| 2026-05-01 09:59 | 40.54642 | 38.67224 | 37965 ft | 406 kts | 241° |
| 2026-05-01 10:00 | 40.51973 | 38.60698 | 37955 ft | 406 kts | 241° |
| 2026-05-01 10:00 | 40.49743 | 38.55278 | 37949 ft | 406 kts | 240° |
| 2026-05-01 10:01 | 40.46967 | 38.48812 | 37937 ft | 404 kts | 240° |
| 2026-05-01 10:01 | 40.44189 | 38.42379 | 37939 ft | 405 kts | 240° |
| 2026-05-01 10:02 | 40.41427 | 38.35969 | 37921 ft | 406 kts | 240° |
| 2026-05-01 10:02 | 40.38652 | 38.29533 | 37908 ft | 404 kts | 240° |
| 2026-05-01 10:03 | 40.35941 | 38.23036 | 37908 ft | 406 kts | 242° |
| 2026-05-01 10:03 | 40.35838 | 38.22776 | 37893 ft | 406 kts | 242° |
| 2026-05-01 10:04 | 40.33338 | 38.16454 | 37909 ft | 407 kts | 242° |
| 2026-05-01 10:04 | 40.30662 | 38.09912 | 37896 ft | 405 kts | 240° |
| 2026-05-01 10:05 | 40.27915 | 38.03462 | 37887 ft | 406 kts | 240° |
| 2026-05-01 10:05 | 40.25165 | 37.96998 | 37884 ft | 406 kts | 240° |
| 2026-05-01 10:06 | 40.22457 | 37.90618 | 37888 ft | 405 kts | 240° |
| 2026-05-01 10:06 | 40.19712 | 37.84163 | 37890 ft | 406 kts | 240° |
| 2026-05-01 10:07 | 40.16974 | 37.77737 | 37643 ft | 407 kts | 240° |
| 2026-05-01 10:07 | 40.15596 | 37.74509 | 37172 ft | 406 kts | 240° |
| 2026-05-01 10:07 | 40.14219 | 37.71284 | 36845 ft | 402 kts | 240° |
| 2026-05-01 10:08 | 40.10441 | 37.62458 | 36959 ft | 408 kts | 240° |
| 2026-05-01 10:08 | 40.09054 | 37.59225 | 37191 ft | 408 kts | 240° |
| 2026-05-01 10:09 | 40.07664 | 37.55985 | 37471 ft | 408 kts | 240° |
| 2026-05-01 10:09 | 40.06282 | 37.52753 | 37750 ft | 407 kts | 241° |
| 2026-05-01 10:09 | 40.04903 | 37.49518 | 37863 ft | 407 kts | 241° |
| 2026-05-01 10:10 | 40.02145 | 37.43065 | 37871 ft | 406 kts | 241° |
| 2026-05-01 10:10 | 39.98024 | 37.33452 | 37868 ft | 407 kts | 241° |
| 2026-05-01 10:11 | 39.95259 | 37.27023 | 37893 ft | 407 kts | 240° |
| 2026-05-01 10:11 | 39.92510 | 37.20641 | 37917 ft | 406 kts | 241° |
| 2026-05-01 10:12 | 39.89744 | 37.14235 | 37936 ft | 406 kts | 241° |
| 2026-05-01 10:13 | 39.85598 | 37.04659 | 37978 ft | 406 kts | 241° |
| 2026-05-01 10:13 | 39.82820 | 36.98259 | 37989 ft | 406 kts | 241° |
| 2026-05-01 10:14 | 39.78359 | 36.88892 | 37984 ft | 406 kts | 233° |
| 2026-05-01 10:14 | 39.74651 | 36.83408 | 37981 ft | 407 kts | 228° |
| 2026-05-01 10:15 | 39.70753 | 36.78061 | 37961 ft | 407 kts | 228° |
| 2026-05-01 10:15 | 39.66862 | 36.72709 | 37938 ft | 407 kts | 228° |
| 2026-05-01 10:16 | 39.62965 | 36.67358 | 37920 ft | 408 kts | 228° |
| 2026-05-01 10:17 | 39.57098 | 36.59323 | 37895 ft | 409 kts | 228° |
| 2026-05-01 10:17 | 39.52108 | 36.52506 | 37885 ft | 410 kts | 228° |
| 2026-05-01 10:18 | 39.46339 | 36.44648 | 37896 ft | 410 kts | 228° |
| 2026-05-01 10:19 | 39.42399 | 36.39300 | 37900 ft | 410 kts | 228° |
| 2026-05-01 10:19 | 39.40952 | 36.37338 | 37898 ft | 410 kts | 228° |
| 2026-05-01 10:20 | 39.35148 | 36.29477 | 37900 ft | 410 kts | 228° |
| 2026-05-01 10:20 | 39.31231 | 36.24185 | 37898 ft | 409 kts | 228° |
| 2026-05-01 10:21 | 39.25339 | 36.16240 | 37897 ft | 409 kts | 228° |
| 2026-05-01 10:22 | 39.19421 | 36.08280 | 37894 ft | 409 kts | 228° |
| 2026-05-01 10:23 | 39.13479 | 36.00379 | 37895 ft | 409 kts | 226° |
| 2026-05-01 10:23 | 39.07689 | 35.93223 | 37899 ft | 410 kts | 226° |
| 2026-05-01 10:24 | 38.99468 | 35.83021 | 37900 ft | 411 kts | 226° |
| 2026-05-01 10:25 | 38.91273 | 35.72761 | 37902 ft | 412 kts | 227° |
| 2026-05-01 10:26 | 38.87271 | 35.67557 | 37909 ft | 412 kts | 227° |
| 2026-05-01 10:27 | 38.79166 | 35.57103 | 37910 ft | 414 kts | 227° |
| 2026-05-01 10:28 | 38.73059 | 35.49269 | 37924 ft | 414 kts | 227° |
| 2026-05-01 10:28 | 38.66929 | 35.41424 | 37912 ft | 415 kts | 227° |
| 2026-05-01 10:29 | 38.60814 | 35.33619 | 37916 ft | 414 kts | 227° |
| 2026-05-01 10:30 | 38.52655 | 35.23259 | 37913 ft | 415 kts | 225° |
| 2026-05-01 10:31 | 38.43823 | 35.13691 | 37906 ft | 416 kts | 222° |
| 2026-05-01 10:32 | 38.37199 | 35.06571 | 37908 ft | 416 kts | 224° |
| 2026-05-01 10:33 | 38.28758 | 34.96443 | 37905 ft | 416 kts | 225° |
| 2026-05-01 10:34 | 38.22454 | 34.88870 | 37920 ft | 417 kts | 225° |
| 2026-05-01 10:34 | 38.18233 | 34.83793 | 37930 ft | 417 kts | 225° |
| 2026-05-01 10:35 | 38.11893 | 34.76190 | 37919 ft | 418 kts | 225° |
| 2026-05-01 10:35 | 38.07666 | 34.71132 | 37927 ft | 418 kts | 225° |
| 2026-05-01 10:36 | 38.01315 | 34.63549 | 37923 ft | 418 kts | 225° |
| 2026-05-01 10:37 | 37.97075 | 34.58496 | 37918 ft | 418 kts | 225° |
| 2026-05-01 10:37 | 37.90721 | 34.50941 | 37914 ft | 418 kts | 225° |
| 2026-05-01 10:38 | 37.86474 | 34.45893 | 37912 ft | 418 kts | 225° |
| 2026-05-01 10:38 | 37.82234 | 34.40853 | 37914 ft | 418 kts | 225° |
| 2026-05-01 10:39 | 37.78017 | 34.35850 | 37912 ft | 418 kts | 225° |
| 2026-05-01 10:39 | 37.73770 | 34.30822 | 37908 ft | 418 kts | 225° |
| 2026-05-01 10:40 | 37.69523 | 34.25801 | 37908 ft | 418 kts | 225° |
| 2026-05-01 10:40 | 37.65275 | 34.20787 | 37908 ft | 418 kts | 225° |
| 2026-05-01 10:41 | 37.61010 | 34.15762 | 37908 ft | 419 kts | 225° |
| 2026-05-01 10:42 | 37.54631 | 34.08262 | 37918 ft | 419 kts | 225° |
| 2026-05-01 10:42 | 37.50353 | 34.03242 | 37924 ft | 420 kts | 225° |
| 2026-05-01 10:43 | 37.46072 | 33.98227 | 37927 ft | 420 kts | 225° |
| 2026-05-01 10:43 | 37.41784 | 33.93215 | 37927 ft | 420 kts | 225° |
| 2026-05-01 10:44 | 37.37485 | 33.88207 | 37929 ft | 421 kts | 225° |
| 2026-05-01 10:44 | 37.33210 | 33.83234 | 37940 ft | 421 kts | 225° |
| 2026-05-01 10:45 | 37.28901 | 33.78230 | 37942 ft | 421 kts | 225° |
| 2026-05-01 10:45 | 37.24594 | 33.73236 | 37948 ft | 422 kts | 225° |
| 2026-05-01 10:46 | 37.20279 | 33.68241 | 37952 ft | 422 kts | 225° |
| 2026-05-01 10:46 | 37.15959 | 33.63247 | 37948 ft | 422 kts | 225° |
| 2026-05-01 10:47 | 37.12235 | 33.57703 | 37946 ft | 418 kts | 240° |
| 2026-05-01 10:47 | 37.10130 | 33.50963 | 37943 ft | 416 kts | 259° |
| 2026-05-01 10:48 | 37.09874 | 33.43747 | 37936 ft | 417 kts | 276° |
| 2026-05-01 10:48 | 37.11029 | 33.37875 | 37577 ft | 421 kts | 290° |
| 2026-05-01 10:48 | 37.12308 | 33.34551 | 36852 ft | 427 kts | 298° |
| 2026-05-01 10:49 | 37.14680 | 33.30543 | 35544 ft | 440 kts | 311° |
| 2026-05-01 10:49 | 37.16184 | 33.28748 | 35047 ft | 442 kts | 318° |
| 2026-05-01 10:49 | 37.18688 | 33.26477 | 34358 ft | 444 kts | 327° |
| 2026-05-01 10:49 | 37.21439 | 33.24753 | 33527 ft | 449 kts | 336° |
| 2026-05-01 10:50 | 37.24429 | 33.23613 | 32760 ft | 451 kts | 346° |
| 2026-05-01 10:50 | 37.27537 | 33.23047 | 31948 ft | 453 kts | 351° |
| 2026-05-01 10:50 | 37.30669 | 33.22605 | 31156 ft | 453 kts | 351° |
| 2026-05-01 10:50 | 37.33780 | 33.22164 | 30658 ft | 446 kts | 351° |
| 2026-05-01 10:51 | 37.36853 | 33.21721 | 30096 ft | 443 kts | 351° |
| 2026-05-01 10:51 | 37.39907 | 33.21273 | 29442 ft | 439 kts | 351° |
| 2026-05-01 10:51 | 37.42924 | 33.20826 | 28853 ft | 433 kts | 351° |
| 2026-05-01 10:51 | 37.45860 | 33.20390 | 28272 ft | 428 kts | 351° |
| 2026-05-01 10:52 | 37.48810 | 33.19951 | 27691 ft | 423 kts | 351° |
| 2026-05-01 10:52 | 37.51725 | 33.19515 | 27115 ft | 419 kts | 351° |
| 2026-05-01 10:52 | 37.54607 | 33.19084 | 26536 ft | 415 kts | 351° |
| 2026-05-01 10:52 | 37.57469 | 33.18655 | 25972 ft | 411 kts | 351° |
| 2026-05-01 10:53 | 37.60300 | 33.18232 | 25407 ft | 409 kts | 351° |
| 2026-05-01 10:53 | 37.63113 | 33.17809 | 24832 ft | 406 kts | 351° |
| 2026-05-01 10:53 | 37.65912 | 33.17387 | 24262 ft | 403 kts | 351° |
| 2026-05-01 10:53 | 37.68695 | 33.16970 | 23670 ft | 402 kts | 351° |
| 2026-05-01 10:54 | 37.71465 | 33.16556 | 23073 ft | 399 kts | 351° |
| 2026-05-01 10:54 | 37.74213 | 33.16145 | 22529 ft | 394 kts | 351° |
| 2026-05-01 10:54 | 37.76886 | 33.15743 | 21975 ft | 390 kts | 351° |
| 2026-05-01 10:54 | 37.79569 | 33.15339 | 21421 ft | 386 kts | 351° |
| 2026-05-01 10:55 | 37.82220 | 33.14939 | 20865 ft | 382 kts | 351° |
| 2026-05-01 10:55 | 37.84858 | 33.14541 | 20318 ft | 379 kts | 351° |
| 2026-05-01 10:55 | 37.87468 | 33.14147 | 19771 ft | 377 kts | 351° |
| 2026-05-01 10:55 | 37.90059 | 33.13720 | 19221 ft | 373 kts | 346° |
| 2026-05-01 10:56 | 37.92461 | 33.12589 | 18687 ft | 366 kts | 328° |
| 2026-05-01 10:56 | 37.94419 | 33.10589 | 18144 ft | 359 kts | 309° |
| 2026-05-01 10:56 | 37.95766 | 33.07968 | 17606 ft | 352 kts | 292° |
| 2026-05-01 10:56 | 37.96412 | 33.05007 | 17086 ft | 346 kts | 275° |
| 2026-05-01 10:57 | 37.96332 | 33.01991 | 16587 ft | 341 kts | 258° |
| 2026-05-01 10:57 | 37.95568 | 32.99183 | 16091 ft | 338 kts | 242° |
| 2026-05-01 10:57 | 37.94295 | 32.96692 | 15597 ft | 335 kts | 236° |
| 2026-05-01 10:57 | 37.92987 | 32.94266 | 15112 ft | 332 kts | 236° |
| 2026-05-01 10:58 | 37.91707 | 32.91880 | 14627 ft | 330 kts | 236° |
| 2026-05-01 10:58 | 37.90423 | 32.89479 | 14142 ft | 329 kts | 236° |
| 2026-05-01 10:58 | 37.89143 | 32.87088 | 13650 ft | 327 kts | 236° |
| 2026-05-01 10:58 | 37.87872 | 32.84712 | 13139 ft | 325 kts | 236° |
| 2026-05-01 10:59 | 37.86609 | 32.82355 | 12667 ft | 322 kts | 236° |
| 2026-05-01 10:59 | 37.85355 | 32.80018 | 12199 ft | 320 kts | 236° |
| 2026-05-01 10:59 | 37.84105 | 32.77687 | 11723 ft | 320 kts | 236° |
| 2026-05-01 10:59 | 37.82857 | 32.75361 | 11256 ft | 318 kts | 236° |
| 2026-05-01 11:00 | 37.81617 | 32.73054 | 10782 ft | 316 kts | 236° |
| 2026-05-01 11:00 | 37.80384 | 32.70760 | 10325 ft | 315 kts | 236° |
| 2026-05-01 11:00 | 37.79174 | 32.68513 | 10159 ft | 303 kts | 236° |
| 2026-05-01 11:00 | 37.78013 | 32.66358 | 10043 ft | 290 kts | 236° |
| 2026-05-01 11:01 | 37.76888 | 32.64272 | 9816 ft | 283 kts | 237° |
| 2026-05-01 11:01 | 37.75797 | 32.62247 | 9683 ft | 277 kts | 237° |
| 2026-05-01 11:01 | 37.74695 | 32.60202 | 9393 ft | 285 kts | 237° |
| 2026-05-01 11:01 | 37.73587 | 32.58146 | 9023 ft | 287 kts | 237° |
| 2026-05-01 11:02 | 37.72461 | 32.56060 | 8644 ft | 286 kts | 236° |
| 2026-05-01 11:02 | 37.71371 | 32.54004 | 8540 ft | 271 kts | 241° |
| 2026-05-01 11:02 | 37.70868 | 32.51857 | 8470 ft | 245 kts | 270° |
| 2026-05-01 11:02 | 37.71260 | 32.49886 | 8431 ft | 225 kts | 301° |
| 2026-05-01 11:03 | 37.72324 | 32.48566 | 8386 ft | 209 kts | 330° |
| 2026-05-01 11:03 | 37.73665 | 32.48045 | 8358 ft | 208 kts | 355° |
| 2026-05-01 11:03 | 37.75148 | 32.48248 | 8356 ft | 218 kts | 9° |
| 2026-05-01 11:03 | 37.76625 | 32.48622 | 8245 ft | 213 kts | 9° |
| 2026-05-01 11:04 | 37.78075 | 32.48967 | 8029 ft | 212 kts | 7° |
| 2026-05-01 11:04 | 37.79541 | 32.49203 | 7791 ft | 211 kts | 6° |
| 2026-05-01 11:04 | 37.80989 | 32.49559 | 7518 ft | 214 kts | 12° |
| 2026-05-01 11:04 | 37.82422 | 32.50070 | 7101 ft | 210 kts | 15° |
| 2026-05-01 11:05 | 37.83794 | 32.50598 | 6543 ft | 209 kts | 15° |
| 2026-05-01 11:05 | 37.85161 | 32.51115 | 6052 ft | 196 kts | 16° |
| 2026-05-01 11:05 | 37.86421 | 32.51591 | 5649 ft | 183 kts | 15° |
| 2026-05-01 11:05 | 37.87623 | 32.52046 | 5253 ft | 177 kts | 16° |
| 2026-05-01 11:06 | 37.88784 | 32.52487 | 4933 ft | 170 kts | 17° |
| 2026-05-01 11:06 | 37.89886 | 32.52904 | 4707 ft | 160 kts | 16° |
| 2026-05-01 11:06 | 37.90924 | 32.53298 | 4495 ft | 151 kts | 16° |
| 2026-05-01 11:07 | 37.92858 | 32.54030 | 4157 ft | 147 kts | 16° |
| 2026-05-01 11:07 | 37.93841 | 32.54404 | 3962 ft | 148 kts | 14° |
| 2026-05-01 11:07 | 37.94825 | 32.54778 | 3763 ft | 147 kts | 14° |
| 2026-05-01 11:07 | 37.95810 | 32.55153 | 3543 ft | 148 kts | 13° |
| 2026-05-01 11:08 | 37.96783 | 32.55531 | 3397 ft | 145 kts | 14° |
| 2026-05-01 11:08 | 37.97748 | 32.55875 | 3393 ft | 145 kts | 18° |
| 2026-05-01 11:08 | 37.98675 | 32.56240 | 3388 ft | 7 kts | 22° |
| 2026-05-01 11:09 | 37.98715 | 32.56325 | 3389 ft | 16 kts | 94° |
| 2026-05-01 11:09 | 37.98650 | 32.56462 | 3390 ft | 24 kts | 107° |
| 2026-05-01 11:09 | 37.98601 | 32.56727 | 3391 ft | 36 kts | 107° |
| 2026-05-01 11:10 | 37.98465 | 32.57294 | 3391 ft | 23 kts | 105° |
| 2026-05-01 11:10 | 37.98437 | 32.57424 | 3391 ft | 11 kts | 96° |
| 2026-05-01 11:10 | 37.98443 | 32.57486 | 3391 ft | 2 kts | 88° |
| 2026-05-01 11:10 | 37.98438 | 32.57503 | 3391 ft | 4 kts | 107° |
| 2026-05-01 11:11 | 37.98434 | 32.57520 | 3391 ft | 0 kts | 105° |